sensor_id;sensor_type;location;lat;lon;timestamp;P1;durP1;ratioP1;P2;durP2;ratioP2
55268;SDS011;41131;42.990;21.954;2023-04-24T00:00:55;11.02;;;8.45;;
55268;SDS011;41131;42.990;21.954;2023-04-24T00:03:24;11.82;;;9.10;;
55268;SDS011;41131;42.990;21.954;2023-04-24T00:05:51;14.60;;;9.20;;
55268;SDS011;41131;42.990;21.954;2023-04-24T00:08:17;16.92;;;8.50;;
55268;SDS011;41131;42.990;21.954;2023-04-24T00:10:43;10.57;;;8.25;;
55268;SDS011;41131;42.990;21.954;2023-04-24T00:13:09;14.35;;;8.75;;
55268;SDS011;41131;42.990;21.954;2023-04-24T00:15:35;13.90;;;9.68;;
55268;SDS011;41131;42.990;21.954;2023-04-24T00:18:01;171.23;;;85.93;;
55268;SDS011;41131;42.990;21.954;2023-04-24T00:20:27;150.95;;;76.93;;
55268;SDS011;41131;42.990;21.954;2023-04-24T00:22:58;58.15;;;35.08;;
55268;SDS011;41131;42.990;21.954;2023-04-24T00:25:24;52.15;;;33.88;;
55268;SDS011;41131;42.990;21.954;2023-04-24T00:27:50;40.17;;;26.27;;
55268;SDS011;41131;42.990;21.954;2023-04-24T00:30:16;18.80;;;13.50;;
55268;SDS011;41131;42.990;21.954;2023-04-24T00:32:42;16.10;;;11.15;;
55268;SDS011;41131;42.990;21.954;2023-04-24T00:35:08;21.13;;;11.60;;
55268;SDS011;41131;42.990;21.954;2023-04-24T00:37:35;11.45;;;9.10;;
55268;SDS011;41131;42.990;21.954;2023-04-24T00:40:01;11.50;;;8.43;;
55268;SDS011;41131;42.990;21.954;2023-04-24T00:42:28;12.20;;;7.43;;
55268;SDS011;41131;42.990;21.954;2023-04-24T00:44:54;15.80;;;8.07;;
55268;SDS011;41131;42.990;21.954;2023-04-24T00:47:21;10.55;;;8.40;;
55268;SDS011;41131;42.990;21.954;2023-04-24T00:49:47;11.93;;;8.27;;
55268;SDS011;41131;42.990;21.954;2023-04-24T00:52:13;10.95;;;8.18;;
55268;SDS011;41131;42.990;21.954;2023-04-24T00:54:42;10.05;;;7.47;;
55268;SDS011;41131;42.990;21.954;2023-04-24T00:57:09;9.63;;;7.80;;
55268;SDS011;41131;42.990;21.954;2023-04-24T00:59:35;8.45;;;6.47;;
55268;SDS011;41131;42.990;21.954;2023-04-24T01:02:01;9.05;;;7.35;;
55268;SDS011;41131;42.990;21.954;2023-04-24T01:04:28;18.02;;;8.57;;
55268;SDS011;41131;42.990;21.954;2023-04-24T01:06:54;15.40;;;9.73;;
55268;SDS011;41131;42.990;21.954;2023-04-24T01:09:21;14.52;;;9.90;;
55268;SDS011;41131;42.990;21.954;2023-04-24T01:11:49;14.48;;;8.82;;
55268;SDS011;41131;42.990;21.954;2023-04-24T01:14:15;12.63;;;7.78;;
55268;SDS011;41131;42.990;21.954;2023-04-24T01:16:42;12.70;;;8.75;;
55268;SDS011;41131;42.990;21.954;2023-04-24T01:19:08;10.95;;;7.40;;
55268;SDS011;41131;42.990;21.954;2023-04-24T01:21:36;12.55;;;6.60;;
55268;SDS011;41131;42.990;21.954;2023-04-24T01:24:05;8.45;;;6.78;;
55268;SDS011;41131;42.990;21.954;2023-04-24T01:26:31;10.10;;;6.80;;
55268;SDS011;41131;42.990;21.954;2023-04-24T01:28:57;7.55;;;6.22;;
55268;SDS011;41131;42.990;21.954;2023-04-24T01:31:23;11.70;;;6.70;;
55268;SDS011;41131;42.990;21.954;2023-04-24T01:33:50;9.32;;;6.82;;
55268;SDS011;41131;42.990;21.954;2023-04-24T01:36:17;9.38;;;7.80;;
55268;SDS011;41131;42.990;21.954;2023-04-24T01:38:43;9.02;;;7.43;;
55268;SDS011;41131;42.990;21.954;2023-04-24T01:41:10;9.63;;;6.75;;
55268;SDS011;41131;42.990;21.954;2023-04-24T01:43:36;8.43;;;7.15;;
55268;SDS011;41131;42.990;21.954;2023-04-24T01:46:02;10.40;;;6.80;;
55268;SDS011;41131;42.990;21.954;2023-04-24T01:48:28;11.02;;;7.05;;
55268;SDS011;41131;42.990;21.954;2023-04-24T01:50:56;10.85;;;7.72;;
55268;SDS011;41131;42.990;21.954;2023-04-24T01:53:22;11.05;;;7.25;;
55268;SDS011;41131;42.990;21.954;2023-04-24T01:55:48;9.45;;;6.95;;
55268;SDS011;41131;42.990;21.954;2023-04-24T01:58:14;9.77;;;6.57;;
55268;SDS011;41131;42.990;21.954;2023-04-24T02:00:40;13.30;;;6.95;;
55268;SDS011;41131;42.990;21.954;2023-04-24T02:03:06;8.38;;;6.72;;
55268;SDS011;41131;42.990;21.954;2023-04-24T02:05:33;13.55;;;9.27;;
55268;SDS011;41131;42.990;21.954;2023-04-24T02:07:59;12.85;;;8.85;;
55268;SDS011;41131;42.990;21.954;2023-04-24T02:10:25;15.15;;;12.00;;
55268;SDS011;41131;42.990;21.954;2023-04-24T02:12:51;18.75;;;12.60;;
55268;SDS011;41131;42.990;21.954;2023-04-24T02:15:17;16.67;;;10.52;;
55268;SDS011;41131;42.990;21.954;2023-04-24T02:17:43;26.88;;;11.13;;
55268;SDS011;41131;42.990;21.954;2023-04-24T02:20:09;19.42;;;10.13;;
55268;SDS011;41131;42.990;21.954;2023-04-24T02:22:35;17.15;;;9.90;;
55268;SDS011;41131;42.990;21.954;2023-04-24T02:25:01;12.77;;;7.88;;
55268;SDS011;41131;42.990;21.954;2023-04-24T02:27:28;10.82;;;7.70;;
55268;SDS011;41131;42.990;21.954;2023-04-24T02:29:54;12.95;;;8.48;;
55268;SDS011;41131;42.990;21.954;2023-04-24T02:32:20;13.90;;;9.27;;
55268;SDS011;41131;42.990;21.954;2023-04-24T02:34:46;17.70;;;10.35;;
55268;SDS011;41131;42.990;21.954;2023-04-24T02:37:12;12.18;;;9.63;;
55268;SDS011;41131;42.990;21.954;2023-04-24T02:39:38;13.68;;;9.85;;
55268;SDS011;41131;42.990;21.954;2023-04-24T02:42:04;13.40;;;9.40;;
55268;SDS011;41131;42.990;21.954;2023-04-24T02:44:30;9.98;;;8.43;;
55268;SDS011;41131;42.990;21.954;2023-04-24T02:46:56;13.93;;;8.48;;
55268;SDS011;41131;42.990;21.954;2023-04-24T02:49:22;10.57;;;8.10;;
55268;SDS011;41131;42.990;21.954;2023-04-24T02:51:48;9.93;;;8.00;;
55268;SDS011;41131;42.990;21.954;2023-04-24T02:54:14;13.10;;;8.60;;
55268;SDS011;41131;42.990;21.954;2023-04-24T02:56:40;10.02;;;8.75;;
55268;SDS011;41131;42.990;21.954;2023-04-24T02:59:07;11.73;;;8.93;;
55268;SDS011;41131;42.990;21.954;2023-04-24T03:01:33;11.90;;;9.35;;
55268;SDS011;41131;42.990;21.954;2023-04-24T03:04:00;10.35;;;8.32;;
55268;SDS011;41131;42.990;21.954;2023-04-24T03:06:26;11.10;;;8.63;;
55268;SDS011;41131;42.990;21.954;2023-04-24T03:08:53;11.13;;;8.75;;
55268;SDS011;41131;42.990;21.954;2023-04-24T03:11:19;11.30;;;9.88;;
55268;SDS011;41131;42.990;21.954;2023-04-24T03:13:45;11.68;;;10.30;;
55268;SDS011;41131;42.990;21.954;2023-04-24T03:16:11;15.13;;;10.48;;
55268;SDS011;41131;42.990;21.954;2023-04-24T03:18:37;15.52;;;11.32;;
55268;SDS011;41131;42.990;21.954;2023-04-24T03:21:03;15.20;;;10.13;;
55268;SDS011;41131;42.990;21.954;2023-04-24T03:23:30;10.27;;;8.07;;
55268;SDS011;41131;42.990;21.954;2023-04-24T03:25:56;10.73;;;8.13;;
55268;SDS011;41131;42.990;21.954;2023-04-24T03:28:22;10.60;;;8.45;;
55268;SDS011;41131;42.990;21.954;2023-04-24T03:30:48;11.70;;;8.18;;
55268;SDS011;41131;42.990;21.954;2023-04-24T03:33:14;9.13;;;8.20;;
55268;SDS011;41131;42.990;21.954;2023-04-24T03:35:40;13.98;;;9.85;;
55268;SDS011;41131;42.990;21.954;2023-04-24T03:38:06;14.68;;;10.82;;
55268;SDS011;41131;42.990;21.954;2023-04-24T03:40:32;13.88;;;10.57;;
55268;SDS011;41131;42.990;21.954;2023-04-24T03:42:59;12.48;;;10.63;;
55268;SDS011;41131;42.990;21.954;2023-04-24T03:45:25;12.73;;;10.02;;
55268;SDS011;41131;42.990;21.954;2023-04-24T03:47:51;20.85;;;13.95;;
55268;SDS011;41131;42.990;21.954;2023-04-24T03:50:17;20.90;;;13.75;;
55268;SDS011;41131;42.990;21.954;2023-04-24T03:52:43;15.85;;;10.95;;
55268;SDS011;41131;42.990;21.954;2023-04-24T03:55:09;21.42;;;13.70;;
55268;SDS011;41131;42.990;21.954;2023-04-24T03:57:42;18.17;;;11.82;;
55268;SDS011;41131;42.990;21.954;2023-04-24T04:00:08;18.42;;;12.43;;
55268;SDS011;41131;42.990;21.954;2023-04-24T04:02:35;17.63;;;12.60;;
55268;SDS011;41131;42.990;21.954;2023-04-24T04:05:01;23.10;;;13.65;;
55268;SDS011;41131;42.990;21.954;2023-04-24T04:07:27;19.85;;;14.30;;
55268;SDS011;41131;42.990;21.954;2023-04-24T04:09:54;19.20;;;14.07;;
55268;SDS011;41131;42.990;21.954;2023-04-24T04:12:20;21.05;;;14.75;;
55268;SDS011;41131;42.990;21.954;2023-04-24T04:14:47;36.03;;;15.27;;
55268;SDS011;41131;42.990;21.954;2023-04-24T04:17:13;45.58;;;16.65;;
55268;SDS011;41131;42.990;21.954;2023-04-24T04:19:39;26.90;;;15.15;;
55268;SDS011;41131;42.990;21.954;2023-04-24T04:22:05;33.63;;;15.50;;
55268;SDS011;41131;42.990;21.954;2023-04-24T04:24:33;29.85;;;14.27;;
55268;SDS011;41131;42.990;21.954;2023-04-24T04:27:02;32.90;;;15.10;;
55268;SDS011;41131;42.990;21.954;2023-04-24T04:29:29;20.63;;;11.50;;
55268;SDS011;41131;42.990;21.954;2023-04-24T04:31:56;19.40;;;9.48;;
55268;SDS011;41131;42.990;21.954;2023-04-24T04:34:23;11.65;;;8.40;;
55268;SDS011;41131;42.990;21.954;2023-04-24T04:36:49;10.40;;;7.90;;
55268;SDS011;41131;42.990;21.954;2023-04-24T04:39:15;10.90;;;7.50;;
55268;SDS011;41131;42.990;21.954;2023-04-24T04:41:43;10.63;;;7.55;;
55268;SDS011;41131;42.990;21.954;2023-04-24T04:44:11;11.98;;;8.13;;
55268;SDS011;41131;42.990;21.954;2023-04-24T04:46:37;12.93;;;7.95;;
55268;SDS011;41131;42.990;21.954;2023-04-24T04:49:04;10.23;;;8.15;;
55268;SDS011;41131;42.990;21.954;2023-04-24T04:51:30;10.00;;;7.95;;
55268;SDS011;41131;42.990;21.954;2023-04-24T04:53:56;15.50;;;9.48;;
55268;SDS011;41131;42.990;21.954;2023-04-24T04:56:23;11.27;;;7.60;;
55268;SDS011;41131;42.990;21.954;2023-04-24T04:58:49;9.30;;;7.63;;
55268;SDS011;41131;42.990;21.954;2023-04-24T05:01:15;12.10;;;7.53;;
55268;SDS011;41131;42.990;21.954;2023-04-24T05:03:41;19.40;;;8.50;;
55268;SDS011;41131;42.990;21.954;2023-04-24T05:06:07;13.18;;;7.57;;
55268;SDS011;41131;42.990;21.954;2023-04-24T05:08:33;11.30;;;7.13;;
55268;SDS011;41131;42.990;21.954;2023-04-24T05:10:59;12.20;;;7.38;;
55268;SDS011;41131;42.990;21.954;2023-04-24T05:13:25;10.00;;;7.47;;
55268;SDS011;41131;42.990;21.954;2023-04-24T05:15:51;14.20;;;7.55;;
55268;SDS011;41131;42.990;21.954;2023-04-24T05:18:17;9.00;;;6.88;;
55268;SDS011;41131;42.990;21.954;2023-04-24T05:20:43;13.60;;;9.00;;
55268;SDS011;41131;42.990;21.954;2023-04-24T05:23:09;35.92;;;21.98;;
55268;SDS011;41131;42.990;21.954;2023-04-24T05:25:36;25.40;;;16.70;;
55268;SDS011;41131;42.990;21.954;2023-04-24T05:28:04;40.00;;;25.13;;
55268;SDS011;41131;42.990;21.954;2023-04-24T05:30:30;16.88;;;9.55;;
55268;SDS011;41131;42.990;21.954;2023-04-24T05:32:56;37.25;;;19.90;;
55268;SDS011;41131;42.990;21.954;2023-04-24T05:35:22;15.55;;;10.90;;
55268;SDS011;41131;42.990;21.954;2023-04-24T05:37:48;15.32;;;9.10;;
55268;SDS011;41131;42.990;21.954;2023-04-24T05:40:14;15.43;;;10.77;;
55268;SDS011;41131;42.990;21.954;2023-04-24T05:42:40;11.10;;;7.22;;
55268;SDS011;41131;42.990;21.954;2023-04-24T05:45:07;25.17;;;14.02;;
55268;SDS011;41131;42.990;21.954;2023-04-24T05:47:34;27.25;;;18.30;;
55268;SDS011;41131;42.990;21.954;2023-04-24T05:50:00;9.80;;;7.47;;
55268;SDS011;41131;42.990;21.954;2023-04-24T05:52:26;9.82;;;6.43;;
55268;SDS011;41131;42.990;21.954;2023-04-24T05:54:51;8.45;;;6.65;;
55268;SDS011;41131;42.990;21.954;2023-04-24T05:57:18;18.98;;;9.07;;
55268;SDS011;41131;42.990;21.954;2023-04-24T05:59:44;9.02;;;6.50;;
55268;SDS011;41131;42.990;21.954;2023-04-24T06:02:10;10.10;;;5.90;;
55268;SDS011;41131;42.990;21.954;2023-04-24T06:04:36;7.95;;;5.78;;
55268;SDS011;41131;42.990;21.954;2023-04-24T06:07:02;9.63;;;6.03;;
55268;SDS011;41131;42.990;21.954;2023-04-24T06:09:28;9.07;;;5.93;;
55268;SDS011;41131;42.990;21.954;2023-04-24T06:11:54;14.18;;;6.03;;
55268;SDS011;41131;42.990;21.954;2023-04-24T06:14:21;9.70;;;5.45;;
55268;SDS011;41131;42.990;21.954;2023-04-24T06:16:47;11.93;;;6.57;;
55268;SDS011;41131;42.990;21.954;2023-04-24T06:19:13;11.45;;;6.63;;
55268;SDS011;41131;42.990;21.954;2023-04-24T06:21:39;8.63;;;6.25;;
55268;SDS011;41131;42.990;21.954;2023-04-24T06:24:05;10.63;;;6.57;;
55268;SDS011;41131;42.990;21.954;2023-04-24T06:26:32;16.98;;;7.55;;
55268;SDS011;41131;42.990;21.954;2023-04-24T06:28:58;20.02;;;16.75;;
55268;SDS011;41131;42.990;21.954;2023-04-24T06:31:25;13.68;;;8.70;;
55268;SDS011;41131;42.990;21.954;2023-04-24T06:33:51;11.80;;;6.82;;
55268;SDS011;41131;42.990;21.954;2023-04-24T06:36:17;19.60;;;8.15;;
55268;SDS011;41131;42.990;21.954;2023-04-24T06:38:43;12.80;;;9.18;;
55268;SDS011;41131;42.990;21.954;2023-04-24T06:41:09;16.40;;;8.10;;
55268;SDS011;41131;42.990;21.954;2023-04-24T06:43:36;11.15;;;9.68;;
55268;SDS011;41131;42.990;21.954;2023-04-24T06:46:02;15.35;;;9.27;;
55268;SDS011;41131;42.990;21.954;2023-04-24T06:48:28;15.10;;;6.43;;
55268;SDS011;41131;42.990;21.954;2023-04-24T06:50:54;14.50;;;7.07;;
55268;SDS011;41131;42.990;21.954;2023-04-24T06:53:20;11.75;;;7.50;;
55268;SDS011;41131;42.990;21.954;2023-04-24T06:55:46;15.52;;;10.85;;
55268;SDS011;41131;42.990;21.954;2023-04-24T06:58:13;12.25;;;6.30;;
55268;SDS011;41131;42.990;21.954;2023-04-24T07:00:40;8.98;;;6.43;;
55268;SDS011;41131;42.990;21.954;2023-04-24T11:17:26;7.57;;;4.38;;
55268;SDS011;41131;42.990;21.954;2023-04-24T11:20:02;7.35;;;4.70;;
55268;SDS011;41131;42.990;21.954;2023-04-24T11:22:29;10.00;;;5.30;;
55268;SDS011;41131;42.990;21.954;2023-04-24T11:24:59;11.10;;;5.18;;
55268;SDS011;41131;42.990;21.954;2023-04-24T11:27:28;8.48;;;4.50;;
55268;SDS011;41131;42.990;21.954;2023-04-24T11:32:27;12.98;;;6.68;;
55268;SDS011;41131;42.990;21.954;2023-04-24T11:35:00;7.70;;;5.10;;
55268;SDS011;41131;42.990;21.954;2023-04-24T11:37:27;9.57;;;4.97;;
55268;SDS011;41131;42.990;21.954;2023-04-24T11:39:56;21.98;;;5.93;;
55268;SDS011;41131;42.990;21.954;2023-04-24T11:42:25;9.70;;;4.77;;
55268;SDS011;41131;42.990;21.954;2023-04-24T11:44:52;11.40;;;5.68;;
55268;SDS011;41131;42.990;21.954;2023-04-24T11:47:28;10.57;;;6.72;;
55268;SDS011;41131;42.990;21.954;2023-04-24T11:49:55;9.32;;;5.32;;
55268;SDS011;41131;42.990;21.954;2023-04-24T11:52:21;10.30;;;4.50;;
55268;SDS011;41131;42.990;21.954;2023-04-24T11:54:49;6.53;;;4.60;;
55268;SDS011;41131;42.990;21.954;2023-04-24T11:57:25;6.75;;;4.97;;
55268;SDS011;41131;42.990;21.954;2023-04-24T11:59:53;7.22;;;4.65;;
55268;SDS011;41131;42.990;21.954;2023-04-24T12:02:23;9.68;;;4.85;;
55268;SDS011;41131;42.990;21.954;2023-04-24T12:04:50;12.70;;;4.72;;
55268;SDS011;41131;42.990;21.954;2023-04-24T12:07:16;12.63;;;5.82;;
55268;SDS011;41131;42.990;21.954;2023-04-24T12:10:00;10.93;;;5.55;;
55268;SDS011;41131;42.990;21.954;2023-04-24T12:12:27;9.43;;;5.47;;
55268;SDS011;41131;42.990;21.954;2023-04-24T12:14:56;8.90;;;5.35;;
55268;SDS011;41131;42.990;21.954;2023-04-24T12:17:25;12.13;;;5.88;;
55268;SDS011;41131;42.990;21.954;2023-04-24T12:19:52;9.25;;;5.90;;
55268;SDS011;41131;42.990;21.954;2023-04-24T12:22:18;7.07;;;5.57;;
55268;SDS011;41131;42.990;21.954;2023-04-24T12:24:57;26.52;;;6.90;;
55268;SDS011;41131;42.990;21.954;2023-04-24T12:27:24;20.25;;;13.25;;
55268;SDS011;41131;42.990;21.954;2023-04-24T12:29:55;23.88;;;16.33;;
55268;SDS011;41131;42.990;21.954;2023-04-24T12:32:21;22.98;;;16.08;;
55268;SDS011;41131;42.990;21.954;2023-04-24T12:34:49;9.32;;;6.28;;
55268;SDS011;41131;42.990;21.954;2023-04-24T12:37:16;14.80;;;10.07;;
55268;SDS011;41131;42.990;21.954;2023-04-24T12:40:06;15.02;;;9.95;;
55268;SDS011;41131;42.990;21.954;2023-04-24T12:42:31;14.75;;;10.23;;
55268;SDS011;41131;42.990;21.954;2023-04-24T12:45:03;12.98;;;8.70;;
55268;SDS011;41131;42.990;21.954;2023-04-24T12:47:30;16.10;;;10.63;;
55268;SDS011;41131;42.990;21.954;2023-04-24T12:49:59;10.52;;;9.43;;
55268;SDS011;41131;42.990;21.954;2023-04-24T12:52:26;15.02;;;11.65;;
55268;SDS011;41131;42.990;21.954;2023-04-24T12:54:58;8.32;;;6.45;;
55268;SDS011;41131;42.990;21.954;2023-04-24T12:57:24;10.20;;;6.68;;
55268;SDS011;41131;42.990;21.954;2023-04-24T12:59:53;22.80;;;6.70;;
55268;SDS011;41131;42.990;21.954;2023-04-24T13:02:19;8.10;;;5.90;;
55268;SDS011;41131;42.990;21.954;2023-04-24T13:04:47;13.90;;;5.55;;
55268;SDS011;41131;42.990;21.954;2023-04-24T13:07:15;9.68;;;5.47;;
55268;SDS011;41131;42.990;21.954;2023-04-24T13:09:42;6.75;;;4.43;;
55268;SDS011;41131;42.990;21.954;2023-04-24T13:12:08;14.85;;;5.70;;
55268;SDS011;41131;42.990;21.954;2023-04-24T13:14:35;15.88;;;6.88;;
55268;SDS011;41131;42.990;21.954;2023-04-24T13:17:03;11.60;;;5.15;;
55268;SDS011;41131;42.990;21.954;2023-04-24T13:19:41;11.80;;;5.65;;
55268;SDS011;41131;42.990;21.954;2023-04-24T13:22:09;16.45;;;5.65;;
55268;SDS011;41131;42.990;21.954;2023-04-24T13:24:35;14.57;;;6.80;;
55268;SDS011;41131;42.990;21.954;2023-04-24T13:27:02;16.25;;;8.02;;
55268;SDS011;41131;42.990;21.954;2023-04-24T13:29:28;9.95;;;6.00;;
55268;SDS011;41131;42.990;21.954;2023-04-24T13:31:55;12.55;;;5.60;;
55268;SDS011;41131;42.990;21.954;2023-04-24T13:34:22;11.85;;;6.70;;
55268;SDS011;41131;42.990;21.954;2023-04-24T13:36:49;8.57;;;5.65;;
55268;SDS011;41131;42.990;21.954;2023-04-24T13:39:15;9.07;;;5.75;;
55268;SDS011;41131;42.990;21.954;2023-04-24T13:41:41;10.07;;;5.40;;
55268;SDS011;41131;42.990;21.954;2023-04-24T13:44:10;8.77;;;6.25;;
55268;SDS011;41131;42.990;21.954;2023-04-24T13:46:41;13.80;;;7.95;;
55268;SDS011;41131;42.990;21.954;2023-04-24T13:49:09;14.30;;;10.20;;
55268;SDS011;41131;42.990;21.954;2023-04-24T13:51:35;17.40;;;13.23;;
55268;SDS011;41131;42.990;21.954;2023-04-24T13:54:04;14.07;;;10.57;;
55268;SDS011;41131;42.990;21.954;2023-04-24T13:56:30;21.95;;;9.52;;
55268;SDS011;41131;42.990;21.954;2023-04-24T13:58:56;12.02;;;10.38;;
55268;SDS011;41131;42.990;21.954;2023-04-24T14:01:22;13.30;;;9.38;;
55268;SDS011;41131;42.990;21.954;2023-04-24T14:03:51;17.73;;;13.15;;
55268;SDS011;41131;42.990;21.954;2023-04-24T14:06:20;20.08;;;12.60;;
55268;SDS011;41131;42.990;21.954;2023-04-24T14:08:47;17.65;;;13.52;;
55268;SDS011;41131;42.990;21.954;2023-04-24T14:11:13;7.05;;;5.60;;
55268;SDS011;41131;42.990;21.954;2023-04-24T14:13:47;18.50;;;10.63;;
55268;SDS011;41131;42.990;21.954;2023-04-24T14:16:16;8.95;;;5.50;;
55268;SDS011;41131;42.990;21.954;2023-04-24T14:18:42;7.75;;;4.78;;
55268;SDS011;41131;42.990;21.954;2023-04-24T14:21:08;9.52;;;5.70;;
55268;SDS011;41131;42.990;21.954;2023-04-24T14:23:34;8.57;;;5.05;;
55268;SDS011;41131;42.990;21.954;2023-04-24T14:26:02;9.90;;;6.68;;
55268;SDS011;41131;42.990;21.954;2023-04-24T14:28:29;10.07;;;5.78;;
55268;SDS011;41131;42.990;21.954;2023-04-24T14:30:55;13.20;;;6.00;;
55268;SDS011;41131;42.990;21.954;2023-04-24T14:33:21;26.20;;;19.05;;
55268;SDS011;41131;42.990;21.954;2023-04-24T14:35:47;17.60;;;12.48;;
55268;SDS011;41131;42.990;21.954;2023-04-24T14:38:14;16.33;;;11.57;;
55268;SDS011;41131;42.990;21.954;2023-04-24T14:40:40;13.32;;;8.15;;
55268;SDS011;41131;42.990;21.954;2023-04-24T14:43:06;10.52;;;5.88;;
55268;SDS011;41131;42.990;21.954;2023-04-24T14:45:32;15.18;;;5.93;;
55268;SDS011;41131;42.990;21.954;2023-04-24T14:47:58;18.60;;;6.72;;
55268;SDS011;41131;42.990;21.954;2023-04-24T14:50:24;9.15;;;7.15;;
55268;SDS011;41131;42.990;21.954;2023-04-24T14:52:53;15.82;;;8.38;;
55268;SDS011;41131;42.990;21.954;2023-04-24T14:55:26;11.90;;;7.50;;
55268;SDS011;41131;42.990;21.954;2023-04-24T14:57:53;11.68;;;5.63;;
55268;SDS011;41131;42.990;21.954;2023-04-24T15:00:20;11.05;;;5.43;;
55268;SDS011;41131;42.990;21.954;2023-04-24T15:02:48;12.43;;;7.65;;
55268;SDS011;41131;42.990;21.954;2023-04-24T15:05:14;35.63;;;22.13;;
55268;SDS011;41131;42.990;21.954;2023-04-24T15:07:40;32.05;;;25.85;;
55268;SDS011;41131;42.990;21.954;2023-04-24T15:10:06;30.70;;;20.02;;
55268;SDS011;41131;42.990;21.954;2023-04-24T15:12:32;24.58;;;17.98;;
55268;SDS011;41131;42.990;21.954;2023-04-24T15:15:04;30.27;;;17.97;;
55268;SDS011;41131;42.990;21.954;2023-04-24T15:17:30;17.40;;;11.68;;
55268;SDS011;41131;42.990;21.954;2023-04-24T15:19:59;22.25;;;15.70;;
55268;SDS011;41131;42.990;21.954;2023-04-24T15:22:28;13.68;;;7.78;;
55268;SDS011;41131;42.990;21.954;2023-04-24T15:24:54;9.02;;;4.60;;
55268;SDS011;41131;42.990;21.954;2023-04-24T15:27:21;10.10;;;4.22;;
55268;SDS011;41131;42.990;21.954;2023-04-24T15:29:49;7.95;;;4.40;;
55268;SDS011;41131;42.990;21.954;2023-04-24T15:32:19;10.82;;;4.78;;
55268;SDS011;41131;42.990;21.954;2023-04-24T15:34:45;7.78;;;4.70;;
55268;SDS011;41131;42.990;21.954;2023-04-24T15:37:11;12.07;;;6.53;;
55268;SDS011;41131;42.990;21.954;2023-04-24T15:39:37;13.60;;;7.65;;
55268;SDS011;41131;42.990;21.954;2023-04-24T15:42:03;7.68;;;3.88;;
55268;SDS011;41131;42.990;21.954;2023-04-24T15:44:29;7.85;;;4.78;;
55268;SDS011;41131;42.990;21.954;2023-04-24T15:46:55;11.68;;;4.95;;
55268;SDS011;41131;42.990;21.954;2023-04-24T15:49:21;9.52;;;5.32;;
55268;SDS011;41131;42.990;21.954;2023-04-24T15:51:48;8.20;;;4.78;;
55268;SDS011;41131;42.990;21.954;2023-04-24T15:54:21;12.57;;;7.07;;
55268;SDS011;41131;42.990;21.954;2023-04-24T15:56:49;11.60;;;6.43;;
55268;SDS011;41131;42.990;21.954;2023-04-24T15:59:16;10.77;;;6.10;;
55268;SDS011;41131;42.990;21.954;2023-04-24T16:01:42;15.52;;;7.30;;
55268;SDS011;41131;42.990;21.954;2023-04-24T16:04:08;16.73;;;7.45;;
55268;SDS011;41131;42.990;21.954;2023-04-24T16:06:34;19.92;;;9.02;;
55268;SDS011;41131;42.990;21.954;2023-04-24T16:09:00;19.75;;;8.30;;
55268;SDS011;41131;42.990;21.954;2023-04-24T16:11:26;12.75;;;6.78;;
55268;SDS011;41131;42.990;21.954;2023-04-24T16:13:56;13.45;;;6.25;;
55268;SDS011;41131;42.990;21.954;2023-04-24T16:16:22;14.75;;;5.85;;
55268;SDS011;41131;42.990;21.954;2023-04-24T16:18:48;22.48;;;7.25;;
55268;SDS011;41131;42.990;21.954;2023-04-24T16:21:18;15.73;;;7.03;;
55268;SDS011;41131;42.990;21.954;2023-04-24T16:23:47;19.60;;;7.72;;
55268;SDS011;41131;42.990;21.954;2023-04-24T16:26:13;11.32;;;6.68;;
55268;SDS011;41131;42.990;21.954;2023-04-24T16:28:39;13.95;;;5.03;;
55268;SDS011;41131;42.990;21.954;2023-04-24T16:31:08;9.95;;;5.90;;
55268;SDS011;41131;42.990;21.954;2023-04-24T16:33:34;10.45;;;6.43;;
55268;SDS011;41131;42.990;21.954;2023-04-24T16:36:00;12.75;;;8.30;;
55268;SDS011;41131;42.990;21.954;2023-04-24T16:38:26;16.50;;;7.45;;
55268;SDS011;41131;42.990;21.954;2023-04-24T16:40:52;17.35;;;7.57;;
55268;SDS011;41131;42.990;21.954;2023-04-24T16:43:19;13.05;;;6.85;;
55268;SDS011;41131;42.990;21.954;2023-04-24T16:45:45;10.52;;;7.32;;
55268;SDS011;41131;42.990;21.954;2023-04-24T16:48:11;16.70;;;9.80;;
55268;SDS011;41131;42.990;21.954;2023-04-24T16:50:37;11.35;;;7.53;;
55268;SDS011;41131;42.990;21.954;2023-04-24T16:53:03;32.55;;;18.35;;
55268;SDS011;41131;42.990;21.954;2023-04-24T16:55:29;39.42;;;13.10;;
55268;SDS011;41131;42.990;21.954;2023-04-24T16:57:55;17.70;;;9.90;;
55268;SDS011;41131;42.990;21.954;2023-04-24T17:00:21;16.98;;;9.55;;
55268;SDS011;41131;42.990;21.954;2023-04-24T17:02:47;18.27;;;7.95;;
55268;SDS011;41131;42.990;21.954;2023-04-24T17:05:14;11.57;;;5.60;;
55268;SDS011;41131;42.990;21.954;2023-04-24T17:07:40;11.73;;;6.75;;
55268;SDS011;41131;42.990;21.954;2023-04-24T17:10:06;10.52;;;5.32;;
55268;SDS011;41131;42.990;21.954;2023-04-24T17:12:35;10.27;;;7.93;;
55268;SDS011;41131;42.990;21.954;2023-04-24T17:15:02;19.77;;;5.50;;
55268;SDS011;41131;42.990;21.954;2023-04-24T17:17:28;16.00;;;8.70;;
55268;SDS011;41131;42.990;21.954;2023-04-24T17:19:54;18.58;;;13.73;;
55268;SDS011;41131;42.990;21.954;2023-04-24T17:22:20;22.90;;;5.93;;
55268;SDS011;41131;42.990;21.954;2023-04-24T17:24:46;12.00;;;5.32;;
55268;SDS011;41131;42.990;21.954;2023-04-24T17:27:12;10.77;;;6.63;;
55268;SDS011;41131;42.990;21.954;2023-04-24T17:29:38;10.88;;;6.20;;
55268;SDS011;41131;42.990;21.954;2023-04-24T17:32:04;8.40;;;5.30;;
55268;SDS011;41131;42.990;21.954;2023-04-24T17:34:31;9.68;;;5.68;;
55268;SDS011;41131;42.990;21.954;2023-04-24T17:36:57;9.18;;;5.75;;
55268;SDS011;41131;42.990;21.954;2023-04-24T17:39:23;10.02;;;6.32;;
55268;SDS011;41131;42.990;21.954;2023-04-24T17:41:51;8.05;;;5.82;;
55268;SDS011;41131;42.990;21.954;2023-04-24T17:44:17;10.25;;;6.50;;
55268;SDS011;41131;42.990;21.954;2023-04-24T17:46:43;13.15;;;9.02;;
55268;SDS011;41131;42.990;21.954;2023-04-24T17:49:08;11.43;;;8.10;;
55268;SDS011;41131;42.990;21.954;2023-04-24T17:51:34;12.88;;;7.60;;
55268;SDS011;41131;42.990;21.954;2023-04-24T17:54:00;16.67;;;9.65;;
55268;SDS011;41131;42.990;21.954;2023-04-24T17:56:26;14.52;;;8.70;;
55268;SDS011;41131;42.990;21.954;2023-04-24T17:58:52;10.20;;;7.65;;
55268;SDS011;41131;42.990;21.954;2023-04-24T18:01:17;14.13;;;7.97;;
55268;SDS011;41131;42.990;21.954;2023-04-24T18:03:43;10.68;;;7.57;;
55268;SDS011;41131;42.990;21.954;2023-04-24T18:06:09;14.00;;;7.30;;
55268;SDS011;41131;42.990;21.954;2023-04-24T18:08:35;17.23;;;10.30;;
55268;SDS011;41131;42.990;21.954;2023-04-24T18:11:01;13.35;;;9.93;;
55268;SDS011;41131;42.990;21.954;2023-04-24T18:13:27;19.13;;;9.90;;
55268;SDS011;41131;42.990;21.954;2023-04-24T18:15:53;15.10;;;9.45;;
55268;SDS011;41131;42.990;21.954;2023-04-24T18:18:18;15.27;;;10.90;;
55268;SDS011;41131;42.990;21.954;2023-04-24T18:20:44;18.52;;;9.63;;
55268;SDS011;41131;42.990;21.954;2023-04-24T18:23:10;13.43;;;7.95;;
55268;SDS011;41131;42.990;21.954;2023-04-24T18:25:36;13.70;;;9.38;;
55268;SDS011;41131;42.990;21.954;2023-04-24T18:28:02;14.25;;;7.63;;
55268;SDS011;41131;42.990;21.954;2023-04-24T18:30:39;13.82;;;8.60;;
55268;SDS011;41131;42.990;21.954;2023-04-24T18:33:06;12.52;;;9.55;;
55268;SDS011;41131;42.990;21.954;2023-04-24T18:35:33;13.95;;;10.50;;